createdAt,value
2017-10-29T00:00:32.055Z,80.40
2017-10-29T00:02:59.697Z,81.10
2017-10-29T00:05:28.060Z,80.80
2017-10-29T00:07:55.631Z,80.90
2017-10-29T00:10:24.008Z,80.80
2017-10-29T00:12:51.586Z,80.80
2017-10-29T00:15:20.007Z,81.00
2017-10-29T00:17:47.616Z,80.90
2017-10-29T00:20:15.226Z,80.60
2017-10-29T00:22:42.815Z,81.20
2017-10-29T00:25:10.393Z,81.10
2017-10-29T00:27:38.006Z,80.20
2017-10-29T00:30:05.643Z,80.00
2017-10-29T00:32:33.249Z,80.10
2017-10-29T00:35:00.861Z,79.20
2017-10-29T00:37:28.504Z,79.00
2017-10-29T00:39:56.116Z,79.30
2017-10-29T00:42:23.718Z,78.70
2017-10-29T00:44:51.334Z,78.70
2017-10-29T00:47:18.909Z,79.20
2017-10-29T00:49:46.491Z,78.50
2017-10-29T00:52:14.103Z,78.50
2017-10-29T00:54:41.728Z,78.50
2017-10-29T00:57:09.346Z,78.10
2017-10-29T00:59:36.992Z,78.00
2017-10-29T01:02:04.848Z,78.40
2017-10-29T01:04:32.488Z,78.20
2017-10-29T01:07:00.089Z,77.80
2017-10-29T01:09:27.719Z,77.60
2017-10-29T01:11:55.294Z,77.70
2017-10-29T01:14:23.689Z,77.70
2017-10-29T01:16:51.282Z,77.70
2017-10-29T01:19:18.871Z,77.80
2017-10-29T01:21:46.497Z,77.80
2017-10-29T01:24:14.081Z,77.70
2017-10-29T01:26:41.697Z,77.80
2017-10-29T01:29:09.326Z,77.60
2017-10-29T01:31:37.689Z,77.90
2017-10-29T01:34:05.396Z,77.90
2017-10-29T01:36:33.032Z,77.80
2017-10-29T01:39:01.373Z,77.90
2017-10-29T01:41:29.020Z,77.80
2017-10-29T01:43:56.595Z,78.00
2017-10-29T01:46:24.224Z,78.00
2017-10-29T01:48:51.853Z,77.90
2017-10-29T01:51:20.196Z,78.50
2017-10-29T01:53:47.837Z,78.40
2017-10-29T01:56:15.419Z,78.30
2017-10-29T01:58:42.995Z,78.40
2017-10-29T02:01:10.613Z,78.30
2017-10-29T02:03:38.197Z,78.60
2017-10-29T02:06:05.844Z,78.60
2017-10-29T02:08:33.438Z,78.80
2017-10-29T02:11:01.073Z,78.70
2017-10-29T02:13:28.641Z,78.70
2017-10-29T02:15:56.973Z,78.70
2017-10-29T02:18:24.588Z,78.70
2017-10-29T02:20:52.149Z,79.00
2017-10-29T02:23:19.890Z,79.10
2017-10-29T02:25:47.544Z,79.20
2017-10-29T02:28:15.148Z,79.10
2017-10-29T02:30:42.762Z,79.20
2017-10-29T02:33:10.409Z,79.10
2017-10-29T02:35:38.752Z,79.30
2017-10-29T02:38:06.327Z,79.20
2017-10-29T02:40:33.936Z,79.60
2017-10-29T02:43:01.543Z,79.50
2017-10-29T02:45:29.124Z,79.60
2017-10-29T02:47:57.515Z,79.30
2017-10-29T02:50:25.138Z,79.30
2017-10-29T02:52:52.764Z,79.40
2017-10-29T02:55:20.330Z,79.40
2017-10-29T02:57:47.939Z,79.30
2017-10-29T03:00:15.506Z,79.50
2017-10-29T03:02:43.145Z,79.50
2017-10-29T03:05:10.732Z,79.60
2017-10-29T03:07:39.091Z,79.90
2017-10-29T03:10:06.726Z,79.80
2017-10-29T03:12:34.289Z,79.80
2017-10-29T03:15:01.909Z,79.50
2017-10-29T03:17:30.271Z,79.10
2017-10-29T03:19:57.886Z,79.00
2017-10-29T03:22:25.477Z,79.10
2017-10-29T03:24:53.088Z,78.90
2017-10-29T03:27:20.722Z,78.80
2017-10-29T03:29:48.327Z,78.80
2017-10-29T03:32:15.944Z,78.90
2017-10-29T03:34:43.556Z,78.80
2017-10-29T03:37:11.148Z,79.10
2017-10-29T03:39:39.180Z,79.20
2017-10-29T03:42:07.020Z,79.40
2017-10-29T03:44:34.693Z,79.50
2017-10-29T03:47:03.029Z,79.70
2017-10-29T03:49:30.634Z,79.60
2017-10-29T03:51:59.011Z,79.70
2017-10-29T03:54:26.575Z,79.60
2017-10-29T03:56:54.191Z,79.60
2017-10-29T03:59:21.768Z,79.60
2017-10-29T04:01:51.723Z,79.60
2017-10-29T04:04:19.314Z,79.70
2017-10-29T04:06:46.891Z,79.60
2017-10-29T04:09:14.519Z,79.60
2017-10-29T04:11:42.104Z,79.40
2017-10-29T04:14:09.713Z,79.50
2017-10-29T04:16:38.110Z,79.60
2017-10-29T04:19:05.686Z,79.50
2017-10-29T04:21:33.310Z,79.60
2017-10-29T04:24:01.665Z,79.40
2017-10-29T04:26:29.273Z,79.40
2017-10-29T04:28:56.896Z,79.30
2017-10-29T04:31:25.259Z,79.50
2017-10-29T04:33:52.845Z,79.40
2017-10-29T04:36:21.241Z,79.20
2017-10-29T04:38:48.951Z,79.30
2017-10-29T04:41:16.562Z,79.90
2017-10-29T04:43:44.176Z,79.20
2017-10-29T04:46:11.770Z,79.30
2017-10-29T04:48:39.397Z,79.10
2017-10-29T04:51:06.987Z,78.60
2017-10-29T04:53:34.561Z,79.00
2017-10-29T04:56:02.961Z,79.10
2017-10-29T04:58:30.536Z,78.90
2017-10-29T05:00:58.133Z,78.80
2017-10-29T05:03:25.775Z,78.90
2017-10-29T05:05:53.339Z,78.90
2017-10-29T05:08:20.959Z,78.80
2017-10-29T05:10:49.334Z,79.00
2017-10-29T05:13:17.664Z,79.10
2017-10-29T05:15:45.235Z,79.10
2017-10-29T05:18:12.854Z,79.20
2017-10-29T05:20:40.427Z,79.50
2017-10-29T05:23:07.997Z,79.60
2017-10-29T05:25:35.605Z,79.50
2017-10-29T05:28:03.169Z,79.50
2017-10-29T05:30:31.553Z,79.30
2017-10-29T05:32:59.918Z,79.30
2017-10-29T05:35:28.319Z,79.30
2017-10-29T05:37:55.910Z,79.30
2017-10-29T05:40:23.515Z,79.30
2017-10-29T05:42:51.119Z,79.50
2017-10-29T05:45:18.740Z,79.60
2017-10-29T05:47:46.308Z,79.30
2017-10-29T05:50:14.694Z,79.10
2017-10-29T05:52:43.028Z,79.40
2017-10-29T05:55:10.629Z,78.70
2017-10-29T05:57:38.994Z,78.30
2017-10-29T06:00:06.637Z,79.00
2017-10-29T06:02:34.217Z,78.50
2017-10-29T06:05:01.801Z,78.30
2017-10-29T06:07:30.176Z,78.30
2017-10-29T06:09:57.744Z,78.30
2017-10-29T06:12:25.404Z,78.10
2017-10-29T06:14:53.846Z,79.20
2017-10-29T06:17:21.522Z,79.10
2017-10-29T06:19:49.902Z,79.60
2017-10-29T06:22:17.540Z,79.60
2017-10-29T06:24:45.167Z,80.40
2017-10-29T06:27:13.516Z,81.60
2017-10-29T06:29:41.168Z,81.60
2017-10-29T06:32:08.794Z,81.80
2017-10-29T06:34:36.384Z,82.10
2017-10-29T06:37:04.011Z,82.80
2017-10-29T06:39:31.590Z,83.30
2017-10-29T06:41:59.196Z,83.10
2017-10-29T06:44:27.736Z,83.20
2017-10-29T06:46:55.332Z,83.10
2017-10-29T06:49:22.959Z,83.60
2017-10-29T06:51:51.336Z,83.30
2017-10-29T06:54:18.956Z,83.20
2017-10-29T06:56:46.589Z,83.30
2017-10-29T06:59:14.188Z,83.30
2017-10-29T07:01:41.755Z,83.70
2017-10-29T07:04:09.372Z,84.20
2017-10-29T07:06:36.951Z,84.40
2017-10-29T07:09:05.327Z,85.20
2017-10-29T07:11:32.922Z,85.10
2017-10-29T07:14:00.528Z,85.50
2017-10-29T07:16:28.109Z,85.60
2017-10-29T07:18:55.735Z,85.80
2017-10-29T07:21:23.308Z,86.50
2017-10-29T07:23:50.927Z,85.80
2017-10-29T07:26:18.499Z,86.00
2017-10-29T07:28:46.155Z,85.90
2017-10-29T07:31:13.765Z,86.00
2017-10-29T07:33:41.327Z,86.20
2017-10-29T07:36:08.902Z,86.10
2017-10-29T07:38:36.548Z,86.00
2017-10-29T07:41:04.147Z,86.50
2017-10-29T07:43:31.756Z,86.70
2017-10-29T07:45:59.362Z,86.40
2017-10-29T07:48:27.740Z,86.30
2017-10-29T07:50:56.688Z,86.60
2017-10-29T07:53:24.288Z,86.60
2017-10-29T07:55:52.647Z,86.50
2017-10-29T07:58:20.266Z,86.50
2017-10-29T08:00:47.845Z,86.70
2017-10-29T08:03:15.449Z,86.90
2017-10-29T08:05:43.832Z,86.50
2017-10-29T08:08:12.175Z,86.60
2017-10-29T08:10:39.752Z,86.60
2017-10-29T08:13:07.359Z,87.10
2017-10-29T08:15:34.937Z,87.10
2017-10-29T08:18:02.580Z,86.90
2017-10-29T08:20:30.147Z,87.20
2017-10-29T08:22:57.744Z,87.40
2017-10-29T08:25:25.374Z,87.50
2017-10-29T08:27:52.955Z,88.30
2017-10-29T08:30:20.537Z,88.30
2017-10-29T08:32:48.183Z,88.20
2017-10-29T08:35:15.768Z,88.00
2017-10-29T08:37:43.387Z,88.00
2017-10-29T08:40:10.979Z,87.80
2017-10-29T08:42:38.589Z,88.10
2017-10-29T08:45:06.215Z,88.90
2017-10-29T08:47:33.787Z,89.50
2017-10-29T08:50:02.140Z,90.00
2017-10-29T08:52:29.747Z,89.90
2017-10-29T08:54:58.141Z,89.20
2017-10-29T08:57:25.714Z,89.20
2017-10-29T08:59:53.315Z,89.00
2017-10-29T09:02:20.895Z,88.80
2017-10-29T09:04:49.297Z,89.00
2017-10-29T09:07:16.888Z,88.80
2017-10-29T09:09:44.500Z,88.60
2017-10-29T09:12:12.924Z,88.00
2017-10-29T09:14:40.484Z,88.00
2017-10-29T09:17:08.139Z,87.40
2017-10-29T09:19:35.709Z,87.70
2017-10-29T09:22:03.283Z,86.70
2017-10-29T09:24:30.913Z,87.10
2017-10-29T09:26:58.479Z,86.00
2017-10-29T09:29:26.091Z,85.50
2017-10-29T09:31:53.677Z,85.60
2017-10-29T09:34:22.028Z,84.00
2017-10-29T09:36:49.687Z,84.00
2017-10-29T09:39:17.262Z,83.40
2017-10-29T09:41:44.836Z,82.70
2017-10-29T09:44:13.229Z,83.50
2017-10-29T09:46:41.638Z,83.60
2017-10-29T09:49:09.224Z,83.60
2017-10-29T09:51:36.802Z,81.70
2017-10-29T09:54:04.435Z,81.50
2017-10-29T09:56:32.025Z,81.10
2017-10-29T09:58:59.593Z,81.00
2017-10-29T10:01:27.216Z,80.90
2017-10-29T10:03:54.804Z,81.80
2017-10-29T10:06:22.379Z,82.10
2017-10-29T10:08:50.764Z,80.30
2017-10-29T10:11:18.385Z,80.30
2017-10-29T10:13:46.035Z,79.60
2017-10-29T10:16:13.604Z,80.00
2017-10-29T10:18:41.177Z,80.20
2017-10-29T10:21:10.010Z,80.60
2017-10-29T10:23:38.338Z,78.50
2017-10-29T10:26:05.917Z,78.50
2017-10-29T10:28:33.530Z,78.70
2017-10-29T10:31:01.104Z,78.40
2017-10-29T10:33:28.675Z,78.50
2017-10-29T10:35:56.341Z,77.60
2017-10-29T10:38:23.939Z,76.00
2017-10-29T10:40:51.560Z,75.80
2017-10-29T10:43:19.157Z,75.10
2017-10-29T10:45:46.766Z,75.20
2017-10-29T10:48:14.396Z,72.30
2017-10-29T10:50:43.543Z,74.10
2017-10-29T10:53:11.143Z,74.00
2017-10-29T10:55:38.715Z,71.20
2017-10-29T10:58:07.119Z,69.50
2017-10-29T11:00:34.743Z,69.40
2017-10-29T11:03:02.351Z,69.20
2017-10-29T11:05:29.994Z,68.50
2017-10-29T11:07:57.578Z,67.10
2017-10-29T11:10:25.172Z,67.40
2017-10-29T11:12:52.800Z,65.80
2017-10-29T11:15:20.419Z,68.80
2017-10-29T11:17:48.834Z,64.40
2017-10-29T11:20:16.439Z,64.40
2017-10-29T11:22:44.064Z,63.00
2017-10-29T11:25:11.672Z,51.90
2017-10-29T11:27:39.315Z,44.30
2017-10-29T11:30:06.892Z,43.20
2017-10-29T11:32:34.483Z,41.20
2017-10-29T11:35:02.852Z,34.00
2017-10-29T11:37:31.187Z,34.20
2017-10-29T11:39:58.820Z,34.30
2017-10-29T11:42:26.470Z,30.90
2017-10-29T11:44:54.819Z,29.60
2017-10-29T11:47:23.186Z,28.30
2017-10-29T11:49:50.828Z,28.30
2017-10-29T11:52:18.428Z,29.10
2017-10-29T11:54:46.031Z,29.70
2017-10-29T11:57:13.604Z,29.60
2017-10-29T11:59:41.234Z,28.30
2017-10-29T12:02:09.564Z,31.40
2017-10-29T12:04:37.491Z,31.20
2017-10-29T12:07:05.059Z,29.70
2017-10-29T12:09:32.640Z,30.20
2017-10-29T12:12:01.026Z,28.40
2017-10-29T12:14:28.622Z,27.90
2017-10-29T12:16:56.306Z,27.00
2017-10-29T12:19:24.647Z,27.00
2017-10-29T12:21:52.207Z,26.90
2017-10-29T12:24:19.821Z,27.10
2017-10-29T12:26:47.436Z,27.40
2017-10-29T12:29:15.072Z,28.00
2017-10-29T12:31:42.698Z,29.30
2017-10-29T12:34:10.319Z,30.00
2017-10-29T12:36:37.944Z,29.40
2017-10-29T12:39:05.555Z,31.50
2017-10-29T12:41:33.129Z,33.50
2017-10-29T12:44:00.752Z,35.00
2017-10-29T12:46:28.379Z,36.90
2017-10-29T12:48:56.782Z,38.00
2017-10-29T12:51:24.428Z,38.00
2017-10-29T12:53:52.044Z,37.40
2017-10-29T12:56:19.675Z,37.00
2017-10-29T12:58:47.304Z,38.40
2017-10-29T13:01:14.878Z,38.80
2017-10-29T13:03:42.506Z,38.10
2017-10-29T13:06:10.876Z,39.60
2017-10-29T13:08:39.260Z,39.60
2017-10-29T13:11:07.661Z,40.20
2017-10-29T13:13:35.283Z,40.20
2017-10-29T13:16:02.873Z,39.90
2017-10-29T13:18:31.254Z,41.20
2017-10-29T13:20:59.622Z,42.70
2017-10-29T13:23:27.204Z,42.60
2017-10-29T13:25:55.583Z,42.90
2017-10-29T13:28:23.187Z,42.90
2017-10-29T13:30:50.785Z,41.40
2017-10-29T13:33:18.402Z,40.50
2017-10-29T13:35:46.040Z,41.50
2017-10-29T13:38:13.741Z,42.80
2017-10-29T13:40:41.379Z,43.20
2017-10-29T13:43:08.975Z,44.30
2017-10-29T13:45:36.597Z,44.40
2017-10-29T13:48:04.213Z,44.30
2017-10-29T13:50:32.562Z,40.50
2017-10-29T13:53:00.179Z,38.30
2017-10-29T13:55:28.533Z,39.40
2017-10-29T13:57:56.941Z,40.40
2017-10-29T14:00:25.267Z,40.20
2017-10-29T14:02:52.888Z,40.30
2017-10-29T14:05:20.474Z,39.60
2017-10-29T14:07:48.087Z,39.90
2017-10-29T14:10:15.711Z,40.80
2017-10-29T14:12:43.332Z,39.70
2017-10-29T14:15:10.969Z,40.00
2017-10-29T14:17:39.365Z,40.60
2017-10-29T14:20:07.740Z,41.50
2017-10-29T14:22:36.070Z,40.50
2017-10-29T14:25:03.695Z,40.40
2017-10-29T14:27:31.394Z,41.40
2017-10-29T14:29:59.015Z,40.80
2017-10-29T14:32:26.631Z,40.20
2017-10-29T14:34:54.232Z,40.60
2017-10-29T14:37:22.630Z,41.30
2017-10-29T14:39:50.260Z,41.40
2017-10-29T14:42:20.515Z,42.20
2017-10-29T14:44:48.131Z,42.20
2017-10-29T14:47:15.736Z,42.90
2017-10-29T14:49:43.355Z,42.30
2017-10-29T14:52:10.984Z,42.70
2017-10-29T14:54:38.566Z,42.80
2017-10-29T14:57:06.130Z,43.10
2017-10-29T14:59:33.774Z,43.80
2017-10-29T15:02:01.352Z,44.60
2017-10-29T15:04:28.912Z,44.40
2017-10-29T15:06:56.582Z,44.30
2017-10-29T15:09:24.186Z,44.30
2017-10-29T15:11:51.810Z,44.10
2017-10-29T15:14:19.371Z,44.50
2017-10-29T15:16:47.041Z,45.00
2017-10-29T15:19:15.412Z,44.40
2017-10-29T15:21:42.979Z,45.00
2017-10-29T15:24:10.621Z,45.60
2017-10-29T15:26:38.246Z,46.00
2017-10-29T15:29:05.875Z,46.00
2017-10-29T15:31:36.210Z,46.60
2017-10-29T15:34:04.551Z,46.80
2017-10-29T15:36:32.174Z,46.70
2017-10-29T15:38:59.770Z,47.40
2017-10-29T15:41:27.601Z,47.90
2017-10-29T15:43:55.226Z,48.30
2017-10-29T15:46:22.845Z,48.90
2017-10-29T15:48:50.447Z,50.30
2017-10-29T15:51:18.082Z,49.40
2017-10-29T15:53:45.719Z,49.80
2017-10-29T15:56:13.307Z,49.50
2017-10-29T15:58:40.874Z,49.40
2017-10-29T16:01:08.638Z,49.80
2017-10-29T16:03:36.206Z,50.80
2017-10-29T16:06:03.815Z,51.20
2017-10-29T16:08:31.442Z,51.40
2017-10-29T16:10:59.011Z,51.20
2017-10-29T16:13:27.387Z,52.20
2017-10-29T16:15:55.781Z,52.30
2017-10-29T16:18:23.352Z,52.20
2017-10-29T16:20:50.966Z,52.40
2017-10-29T16:23:18.619Z,52.90
2017-10-29T16:25:46.249Z,53.00
2017-10-29T16:28:13.868Z,53.50
2017-10-29T16:30:43.504Z,53.10
2017-10-29T16:33:11.103Z,53.50
2017-10-29T16:35:38.747Z,54.00
2017-10-29T16:38:06.330Z,53.90
2017-10-29T16:40:33.963Z,54.30
2017-10-29T16:43:01.572Z,54.60
2017-10-29T16:45:29.255Z,54.60
2017-10-29T16:47:56.840Z,55.30
2017-10-29T16:50:24.495Z,54.60
2017-10-29T16:52:52.825Z,55.60
2017-10-29T16:55:20.400Z,55.60
2017-10-29T16:57:48.036Z,55.30
2017-10-29T17:00:15.624Z,55.60
2017-10-29T17:02:43.242Z,55.50
2017-10-29T17:05:10.889Z,55.60
2017-10-29T17:07:38.485Z,55.90
2017-10-29T17:10:08.215Z,56.00
2017-10-29T17:12:38.179Z,56.20
2017-10-29T17:15:07.961Z,56.80
2017-10-29T17:17:37.032Z,57.20
2017-10-29T17:20:06.445Z,57.30
2017-10-29T17:22:45.565Z,57.50
2017-10-29T17:25:15.405Z,57.90
2017-10-29T17:27:43.063Z,58.20
2017-10-29T17:30:11.329Z,58.10
2017-10-29T17:32:38.944Z,58.00
2017-10-29T17:35:06.551Z,58.30
2017-10-29T17:37:34.151Z,58.40
2017-10-29T17:40:01.801Z,59.30
2017-10-29T17:42:29.378Z,58.30
2017-10-29T17:44:56.982Z,59.10
2017-10-29T17:47:24.589Z,59.00
2017-10-29T17:49:52.980Z,59.30
2017-10-29T17:52:20.557Z,59.30
2017-10-29T17:54:48.250Z,59.40
2017-10-29T17:57:15.828Z,59.50
2017-10-29T17:59:43.473Z,59.30
2017-10-29T18:02:11.061Z,59.00
2017-10-29T18:04:38.723Z,57.90
2017-10-29T18:07:06.411Z,58.50
2017-10-29T18:09:34.795Z,59.60
2017-10-29T18:12:02.440Z,59.60
2017-10-29T18:14:30.040Z,60.00
2017-10-29T18:16:57.691Z,60.40
2017-10-29T18:19:25.370Z,60.10
2017-10-29T18:21:58.229Z,60.70
2017-10-29T18:24:26.615Z,61.80
2017-10-29T18:26:54.970Z,61.60
2017-10-29T18:29:23.346Z,61.20
2017-10-29T18:31:50.971Z,61.20
2017-10-29T18:34:18.667Z,61.50
2017-10-29T18:36:46.253Z,62.10
2017-10-29T18:39:14.612Z,62.40
2017-10-29T18:41:42.383Z,62.40
2017-10-29T18:44:10.726Z,62.70
2017-10-29T18:46:38.331Z,62.30
2017-10-29T18:49:06.012Z,62.90
2017-10-29T18:51:33.580Z,63.10
2017-10-29T18:54:09.074Z,63.60
2017-10-29T18:56:36.653Z,63.40
2017-10-29T18:59:04.251Z,63.70
2017-10-29T19:01:31.868Z,64.30
2017-10-29T19:03:59.483Z,64.30
2017-10-29T19:06:27.095Z,64.40
2017-10-29T19:08:54.701Z,64.20
2017-10-29T19:11:22.316Z,64.80
2017-10-29T19:13:49.908Z,64.70
2017-10-29T19:16:18.231Z,65.00
2017-10-29T19:18:45.850Z,65.00
2017-10-29T19:21:13.420Z,65.40
2017-10-29T19:23:40.995Z,65.60
2017-10-29T19:26:08.599Z,65.40
2017-10-29T19:28:36.164Z,65.50
2017-10-29T19:31:03.735Z,65.70
2017-10-29T19:33:31.334Z,66.10
2017-10-29T19:35:59.004Z,66.10
2017-10-29T19:38:26.740Z,66.10
2017-10-29T19:40:54.411Z,65.70
2017-10-29T19:43:22.081Z,66.40
2017-10-29T19:45:49.683Z,66.50
2017-10-29T19:48:17.247Z,65.90
2017-10-29T19:50:44.872Z,66.50
2017-10-29T19:53:12.499Z,66.70
2017-10-29T19:55:40.874Z,66.90
2017-10-29T19:58:08.495Z,66.90
2017-10-29T20:00:36.094Z,67.70
2017-10-29T20:03:03.656Z,66.50
2017-10-29T20:05:32.035Z,67.40
2017-10-29T20:08:00.411Z,67.20
2017-10-29T20:10:28.029Z,67.20
2017-10-29T20:12:55.623Z,66.70
2017-10-29T20:15:23.214Z,67.50
2017-10-29T20:17:51.595Z,67.20
2017-10-29T20:20:19.937Z,67.30
2017-10-29T20:22:47.544Z,67.30
2017-10-29T20:25:15.247Z,67.80
2017-10-29T20:27:42.881Z,67.40
2017-10-29T20:30:10.449Z,67.20
2017-10-29T20:32:38.139Z,67.40
2017-10-29T20:35:05.736Z,67.60
2017-10-29T20:37:34.120Z,68.30
2017-10-29T20:40:02.452Z,68.30
2017-10-29T20:42:30.056Z,68.30
2017-10-29T20:44:57.650Z,68.90
2017-10-29T20:47:25.248Z,70.00
2017-10-29T20:49:52.817Z,70.40
2017-10-29T20:52:20.432Z,70.30
2017-10-29T20:54:48.015Z,70.10
2017-10-29T20:57:15.579Z,70.50
2017-10-29T20:59:43.166Z,69.80
2017-10-29T21:02:12.926Z,69.90
2017-10-29T21:04:40.501Z,70.70
2017-10-29T21:07:08.893Z,71.50
2017-10-29T21:09:36.470Z,71.50
2017-10-29T21:12:04.039Z,71.40
2017-10-29T21:14:32.442Z,72.00
2017-10-29T21:17:01.165Z,72.00
2017-10-29T21:19:30.429Z,71.90
2017-10-29T21:21:58.021Z,71.90
2017-10-29T21:24:25.647Z,71.90
2017-10-29T21:26:53.972Z,72.50
2017-10-29T21:29:21.661Z,72.50
2017-10-29T21:31:49.267Z,72.00
2017-10-29T21:34:16.855Z,72.00
2017-10-29T21:36:44.496Z,72.50
2017-10-29T21:39:12.087Z,72.10
2017-10-29T21:41:39.698Z,71.70
2017-10-29T21:44:08.027Z,71.80
2017-10-29T21:46:35.590Z,71.80
2017-10-29T21:49:03.201Z,72.00
2017-10-29T21:51:31.567Z,71.50
2017-10-29T21:53:59.217Z,71.50
2017-10-29T21:56:26.815Z,71.80
2017-10-29T21:58:54.385Z,72.10
2017-10-29T22:01:22.008Z,72.20
2017-10-29T22:03:50.366Z,72.90
2017-10-29T22:06:17.950Z,72.90
2017-10-29T22:08:46.332Z,73.90
2017-10-29T22:11:13.914Z,73.80
2017-10-29T22:13:42.312Z,73.20
2017-10-29T22:16:09.879Z,73.10
2017-10-29T22:18:37.453Z,72.70
2017-10-29T22:21:05.055Z,72.90
2017-10-29T22:23:32.631Z,73.10
2017-10-29T22:26:01.017Z,72.40
2017-10-29T22:28:28.582Z,72.40
2017-10-29T22:30:56.153Z,72.60
2017-10-29T22:33:23.768Z,73.40
2017-10-29T22:35:51.327Z,72.60
2017-10-29T22:38:19.089Z,73.40
2017-10-29T22:40:46.716Z,73.00
2017-10-29T22:43:14.291Z,73.70
2017-10-29T22:45:41.903Z,73.90
2017-10-29T22:48:09.490Z,73.40
2017-10-29T22:50:37.051Z,73.70
2017-10-29T22:53:04.668Z,73.60
2017-10-29T22:55:32.235Z,73.40
2017-10-29T22:58:00.612Z,73.50
2017-10-29T23:00:28.219Z,73.50
2017-10-29T23:02:55.797Z,74.10
2017-10-29T23:05:35.351Z,73.80
2017-10-29T23:08:04.447Z,74.40
2017-10-29T23:10:32.021Z,73.40
2017-10-29T23:12:59.640Z,73.10
2017-10-29T23:15:27.212Z,72.90
2017-10-29T23:17:54.809Z,73.00
2017-10-29T23:20:22.375Z,73.00
2017-10-29T23:22:50.000Z,73.30
2017-10-29T23:25:17.568Z,73.80
2017-10-29T23:27:45.144Z,73.70
2017-10-29T23:30:12.766Z,73.80
2017-10-29T23:32:40.327Z,73.40
2017-10-29T23:35:07.891Z,73.50
2017-10-29T23:37:35.500Z,73.20
2017-10-29T23:40:03.113Z,73.70
2017-10-29T23:42:30.726Z,73.10
2017-10-29T23:44:58.287Z,73.10
2017-10-29T23:47:25.893Z,73.50
2017-10-29T23:49:53.459Z,73.60
2017-10-29T23:52:21.054Z,73.20
2017-10-29T23:54:48.669Z,73.50
2017-10-29T23:57:16.295Z,73.70
2017-10-29T23:59:43.901Z,74.00
